Oregon State Flying Club

The Oregon State Flying Club is a non-profit organization committed to providing safe and inexpensive flying to the Oregon State University and Linn-Benton Community College communities. The Club currently owns three aircraft based at the Corvallis Airport for training, travel, and recreational purposes. Founded in 1952 and incorporated in 1956 the OSFC is one of the oldest continuously active flying clubs in the United States.

News & Announcements

Monthly Board Meeting

Next Meeting: Wednesday, August 13 @ 6pm, location TBD

Current METAR KCVO

Raw METAR:  KCVO 230755Z AUTO 32010KT BKN055 OVC070 16/09 A3005 RMK AO1

This is a report for Corvallis Municipal Automatic Weather Observing / Reporting System, United States. The report was made 7 minutes ago, at 07:55 UTC. The wind was blowing at a speed of 11.5 miles per hour (5.1 meters per second) from northwest (320°). The temperature was 61 °F (16 °C), with a dew-point at 48 °F (9 °C). The atmospheric pressure was 30.05 inHg (1018 hPa). The relative humidity was 63.1%. There were broken clouds at a height of 5500 feet (1676 meters). The sky was overcast from a height of 7000 feet (2134 meter)